Time;durP1;ratioP1;P1;durP2;ratioP2;P2;SDS_P1;SDS_P2;PMS_P1;PMS_P2;Temp;Humidity;BMP_temperature;BMP_pressure;BME280_temperature;BME280_humidity;BME280_pressure;Samples;Min_cycle;Max_cycle;Signal;HPM_P1;HPM_P2
2022/02/09 00:10:05;;;;;;;4.40;2.75;;;;;;;;;;5090171;28;20473;-81
2022/02/09 00:12:43;;;;;;;8.25;3.28;;;;;;;;;;5105811;28;20048;-83
2022/02/09 00:37:19;;;;;;;4.53;2.85;;;;;;;;;;5106827;28;20442;-80
2022/02/09 00:40:03;;;;;;;3.72;2.50;;;;;;;;;;5088969;28;20054;-80
2022/02/09 01:40:14;;;;;;;3.20;2.22;;;;;;;;;;5096128;28;20083;-81
2022/02/09 01:56:28;;;;;;;3.03;2.38;;;;;;;;;;5099391;28;20044;-80
2022/02/09 01:58:54;;;;;;;;;;;;;;;;;;5090567;28;20055;-82
2022/02/09 02:01:20;;;;;;;4.05;2.50;;;;;;;;;;5106856;28;19998;-82
2022/02/09 02:03:46;;;;;;;3.45;1.83;;;;;;;;;;5106716;28;20062;-80
2022/02/09 02:06:15;;;;;;;;;;;;;;;;;;5091030;28;20493;-81
2022/02/09 02:08:41;;;;;;;3.00;1.88;;;;;;;;;;5107705;28;20385;-81
2022/02/09 02:11:20;;;;;;;7.40;2.35;;;;;;;;;;5083088;28;20028;-80
2022/02/09 02:18:53;;;;;;;2.08;1.80;;;;;;;;;;5078649;28;20062;-82
2022/02/09 02:21:29;;;;;;;4.65;2.20;;;;;;;;;;5116195;28;20526;-80
2022/02/09 02:31:59;;;;;;;5.78;1.77;;;;;;;;;;5106084;28;20044;-81
2022/02/09 02:40:16;;;;;;;4.20;2.30;;;;;;;;;;5067327;28;20091;-81
2022/02/09 03:12:09;;;;;;;5.93;2.67;;;;;;;;;;5082531;28;20475;-82
2022/02/09 03:14:54;;;;;;;5.00;2.20;;;;;;;;;;5100934;28;20496;-82
2022/02/09 03:17:25;;;;;;;7.45;3.10;;;;;;;;;;5118539;27;20048;-82
2022/02/09 03:22:29;;;;;;;4.22;2.13;;;;;;;;;;5097706;28;20130;-81
2022/02/09 03:25:27;;;;;;;3.60;2.15;;;;;;;;;;5100419;28;20472;-82
2022/02/09 03:44:48;;;;;;;8.88;2.90;;;;;;;;;;5103913;28;20486;-81
2022/02/09 03:55:17;;;;;;;4.60;2.58;;;;;;;;;;5101206;28;20134;-80
2022/02/09 03:57:46;;;;;;;2.58;2.17;;;;;;;;;;5119675;27;20044;-81
2022/02/09 04:00:14;;;;;;;6.38;2.17;;;;;;;;;;5111571;27;20039;-83
2022/02/09 04:02:40;;;;;;;4.60;2.72;;;;;;;;;;5100166;28;20048;-81
2022/02/09 04:05:07;;;;;;;6.80;3.15;;;;;;;;;;5098093;28;20062;-81
2022/02/09 04:07:33;;;;;;;2.88;2.10;;;;;;;;;;5099363;28;20069;-81
2022/02/09 04:10:01;;;;;;;3.38;2.42;;;;;;;;;;5107865;27;20378;-81
2022/02/09 04:15:48;;;;;;;4.70;2.65;;;;;;;;;;5099207;28;20441;-82
2022/02/09 04:39:25;;;;;;;1.70;1.40;;;;;;;;;;5100710;28;20058;-81
2022/02/09 04:42:33;;;;;;;5.88;2.28;;;;;;;;;;5119440;27;20040;-80
2022/02/09 04:45:20;;;;;;;6.15;2.60;;;;;;;;;;5095641;28;20184;-82
2022/02/09 04:50:18;;;;;;;6.65;2.60;;;;;;;;;;5099586;28;20112;-81
2022/02/09 04:53:00;;;;;;;5.22;2.58;;;;;;;;;;5099076;28;20044;-81
2022/02/09 05:01:17;;;;;;;1.98;1.58;;;;;;;;;;5103825;28;20048;-81
2022/02/09 05:21:05;;;;;;;2.22;1.20;;;;;;;;;;5093625;28;20052;-81
2022/02/09 05:28:06;;;;;;;3.00;1.60;;;;;;;;;;5116521;28;20115;-81
2022/02/09 05:30:33;;;;;;;7.50;1.70;;;;;;;;;;5124953;28;20474;-82
2022/02/09 05:32:59;;;;;;;2.83;1.25;;;;;;;;;;5114774;28;20052;-81
2022/02/09 05:35:26;;;;;;;;;;;;;;;;;;5095184;28;20059;-82
2022/02/09 05:37:53;;;;;;;6.75;2.28;;;;;;;;;;5101669;28;19933;-80
2022/02/09 05:40:19;;;;;;;3.97;1.85;;;;;;;;;;5096832;28;20047;-80
2022/02/09 05:42:45;;;;;;;1.70;1.25;;;;;;;;;;5097476;28;20048;-81
2022/02/09 05:45:13;;;;;;;3.08;1.50;;;;;;;;;;5097297;28;20040;-81
2022/02/09 05:50:31;;;;;;;2.95;2.08;;;;;;;;;;5089463;28;20050;-82
2022/02/09 05:55:49;;;;;;;6.50;2.42;;;;;;;;;;5075030;28;20087;-80
2022/02/09 06:00:52;;;;;;;1.98;1.60;;;;;;;;;;5095957;28;20046;-82
2022/02/09 06:03:18;;;;;;;3.75;1.50;;;;;;;;;;5092888;28;20083;-80
2022/02/09 06:05:44;;;;;;;;;;;;;;;;;;5098317;28;20050;-81
2022/02/09 06:08:10;;;;;;;11.10;2.33;;;;;;;;;;5099460;28;20289;-80
2022/02/09 06:10:37;;;;;;;;;;;;;;;;;;5098537;28;20126;-80
2022/02/09 06:19:39;;;;;;;4.88;1.70;;;;;;;;;;5101685;27;20055;-81
2022/02/09 06:21:06;;;;;;;4.97;1.95;;;;;;;;;;5103748;28;20043;-83
2022/02/09 06:23:34;;;;;;;7.53;2.35;;;;;;;;;;5092695;28;20041;-82
2022/02/09 06:26:05;;;;;;;1.85;1.33;;;;;;;;;;5081584;28;20136;-81
2022/02/09 06:28:31;;;;;;;1.80;1.50;;;;;;;;;;5077226;28;20051;-80
2022/02/09 06:30:58;;;;;;;;;;;;;;;;;;5102540;28;20051;-83
2022/02/09 06:33:24;;;;;;;2.63;1.98;;;;;;;;;;5103211;28;19929;-80
2022/02/09 06:35:53;;;;;;;;;;;;;;;;;;5108437;28;20031;-84
2022/02/09 06:38:19;;;;;;;6.47;2.35;;;;;;;;;;5107750;28;20007;-83
2022/02/09 06:40:46;;;;;;;1.52;1.35;;;;;;;;;;5103592;28;20389;-81
2022/02/09 06:43:13;;;;;;;9.93;1.98;;;;;;;;;;5095553;28;20641;-84
2022/02/09 06:45:42;;;;;;;3.00;1.63;;;;;;;;;;5082323;28;20484;-80
2022/02/09 06:48:12;;;;;;;5.57;1.30;;;;;;;;;;5100579;28;20071;-81
2022/02/09 06:50:42;;;;;;;4.85;1.92;;;;;;;;;;5103214;28;20042;-80
2022/02/09 06:55:57;;;;;;;4.05;1.52;;;;;;;;;;5092497;28;20043;-82
2022/02/09 07:01:03;;;;;;;3.60;1.67;;;;;;;;;;5100379;28;20131;-85
2022/02/09 07:03:29;;;;;;;7.20;2.13;;;;;;;;;;5091379;28;20040;-78
2022/02/09 07:05:55;;;;;;;;;;;;;;;;;;5101411;28;20765;-82
2022/02/09 07:08:21;;;;;;;4.22;1.25;;;;;;;;;;5075525;28;19920;-80
2022/02/09 07:10:47;;;;;;;8.98;2.40;;;;;;;;;;5099525;28;20342;-82
2022/02/09 07:13:21;;;;;;;9.05;2.50;;;;;;;;;;5074714;28;20185;-83
2022/02/09 07:16:04;;;;;;;1.95;1.73;;;;;;;;;;5098949;28;20804;-81
2022/02/09 07:18:33;;;;;;;4.47;1.98;;;;;;;;;;5096439;28;20048;-82
2022/02/09 07:21:09;;;;;;;5.43;2.08;;;;;;;;;;5112955;27;20118;-81
2022/02/09 07:26:11;;;;;;;2.30;2.05;;;;;;;;;;5113303;28;20043;-82
2022/02/09 07:28:39;;;;;;;6.45;2.25;;;;;;;;;;5075651;28;20089;-82
2022/02/09 07:31:07;;;;;;;4.18;2.47;;;;;;;;;;5124949;28;20043;-80
2022/02/09 07:33:39;;;;;;;7.28;2.63;;;;;;;;;;5098241;28;20135;-80
2022/02/09 07:36:06;;;;;;;2.50;1.88;;;;;;;;;;5095406;28;20134;-81
2022/02/09 07:38:36;;;;;;;7.13;2.10;;;;;;;;;;5088773;28;20044;-82
2022/02/09 07:41:07;;;;;;;4.05;1.75;;;;;;;;;;5076606;28;20132;-80
2022/02/09 07:43:47;;;;;;;1.52;1.30;;;;;;;;;;5101920;28;20101;-80
2022/02/09 07:51:42;;;;;;;4.90;2.47;;;;;;;;;;5102039;28;20043;-80
2022/02/09 07:54:32;;;;;;;10.43;2.80;;;;;;;;;;5099787;28;20044;-80
2022/02/09 07:57:16;;;;;;;6.25;1.58;;;;;;;;;;5083692;28;20063;-82
2022/02/09 07:59:43;;;;;;;4.97;2.30;;;;;;;;;;5101286;28;20180;-80
2022/02/09 08:02:09;;;;;;;;;;;;;;;;;;5097747;28;20052;-81
2022/02/09 08:04:38;;;;;;;1.40;1.20;;;;;;;;;;5093948;28;19928;-80
2022/02/09 08:07:04;;;;;;;4.80;1.38;;;;;;;;;;5060958;28;20047;-78
2022/02/09 08:09:38;;;;;;;;;;;;;;;;;;5096967;28;20054;-82
2022/02/09 08:12:35;;;;;;;3.03;1.83;;;;;;;;;;5093363;28;19971;-82
2022/02/09 08:22:45;;;;;;;4.82;2.00;;;;;;;;;;5095691;28;20039;-82
2022/02/09 08:29:19;;;;;;;5.10;1.92;;;;;;;;;;5080137;28;20072;-83
2022/02/09 08:32:24;;;;;;;2.97;1.73;;;;;;;;;;5096090;28;20039;-80
2022/02/09 08:34:31;;;;;;;3.20;1.67;;;;;;;;;;5089332;28;20052;-82
2022/02/09 08:36:57;;;;;;;5.93;2.25;;;;;;;;;;5094158;28;20124;-79
2022/02/09 08:39:24;;;;;;;;;;;;;;;;;;5082308;28;20150;-80
2022/02/09 08:41:50;;;;;;;1.58;1.40;;;;;;;;;;5099827;28;19916;-80
2022/02/09 08:44:17;;;;;;;6.47;2.00;;;;;;;;;;5103389;28;20052;-80
2022/02/09 08:46:43;;;;;;;3.25;1.83;;;;;;;;;;5098002;28;20048;-80
2022/02/09 08:49:09;;;;;;;;;;;;;;;;;;5109097;28;20036;-82
2022/02/09 08:51:35;;;;;;;3.05;2.30;;;;;;;;;;5092693;28;20006;-81
2022/02/09 08:54:02;;;;;;;4.70;2.33;;;;;;;;;;5090020;28;20044;-80
2022/02/09 08:56:29;;;;;;;2.80;1.92;;;;;;;;;;5072103;28;20043;-79
2022/02/09 08:58:57;;;;;;;2.78;2.15;;;;;;;;;;5091492;28;20052;-79
2022/02/09 09:01:34;;;;;;;6.47;1.60;;;;;;;;;;5068976;28;20689;-83
2022/02/09 09:04:07;;;;;;;5.43;2.75;;;;;;;;;;5085266;28;20040;-81
2022/02/09 09:06:39;;;;;;;1.63;1.30;;;;;;;;;;5066691;28;20031;-84
2022/02/09 10:04:00;;;;;;;4.72;2.42;;;;;;;;;;5092347;28;20055;-81
2022/02/09 10:33:38;;;;;;;5.68;2.20;;;;;;;;;;5077615;28;20122;-78
2022/02/09 10:36:18;;;;;;;5.10;2.47;;;;;;;;;;5060555;28;20044;-79
2022/02/09 10:38:45;;;;;;;3.45;1.90;;;;;;;;;;5079802;28;20448;-79
2022/02/09 10:41:20;;;;;;;3.65;2.35;;;;;;;;;;5060249;28;20040;-81
2022/02/09 10:43:47;;;;;;;3.50;2.10;;;;;;;;;;5076097;28;20040;-80
2022/02/09 10:46:19;;;;;;;3.47;1.98;;;;;;;;;;5080821;28;20065;-80
2022/02/09 10:48:50;;;;;;;4.03;1.95;;;;;;;;;;5060705;28;20040;-79
2022/02/09 10:51:44;;;;;;;4.80;2.28;;;;;;;;;;5056675;28;20139;-80
2022/02/09 10:54:17;;;;;;;4.97;1.92;;;;;;;;;;5064265;28;20036;-79
2022/02/09 10:56:45;;;;;;;2.97;1.63;;;;;;;;;;5080047;28;20097;-81
2022/02/09 10:59:12;;;;;;;3.58;1.63;;;;;;;;;;5075070;28;20059;-84
2022/02/09 11:01:40;;;;;;;4.38;1.55;;;;;;;;;;5081567;28;20492;-82
2022/02/09 11:04:07;;;;;;;4.50;2.10;;;;;;;;;;5081822;28;20405;-82
2022/02/09 11:06:35;;;;;;;2.85;1.52;;;;;;;;;;5078104;28;20600;-80
2022/02/09 11:09:03;;;;;;;7.82;2.20;;;;;;;;;;5067191;28;20093;-79
2022/02/09 11:11:29;;;;;;;3.50;1.30;;;;;;;;;;5073056;28;20144;-82
2022/02/09 11:13:56;;;;;;;6.45;2.08;;;;;;;;;;5069381;28;20047;-81
2022/02/09 11:16:24;;;;;;;5.63;2.03;;;;;;;;;;5067433;28;20051;-85
2022/02/09 11:18:53;;;;;;;4.50;1.85;;;;;;;;;;5057224;28;20090;-82
2022/02/09 11:21:25;;;;;;;4.00;2.30;;;;;;;;;;5049630;28;20059;-83
2022/02/09 11:23:57;;;;;;;2.80;1.60;;;;;;;;;;5060888;28;20036;-82
2022/02/09 11:26:27;;;;;;;3.60;1.77;;;;;;;;;;5070561;28;20037;-81
2022/02/09 11:29:18;;;;;;;2.83;1.63;;;;;;;;;;5079502;28;20488;-78
2022/02/09 11:32:04;;;;;;;2.25;1.40;;;;;;;;;;5080567;28;20048;-81
2022/02/09 11:34:51;;;;;;;3.50;2.33;;;;;;;;;;5079611;28;20076;-78
2022/02/09 11:37:28;;;;;;;9.10;2.00;;;;;;;;;;5076329;28;20083;-80
2022/02/09 11:39:58;;;;;;;7.05;1.83;;;;;;;;;;5051876;28;20125;-79
2022/02/09 11:42:25;;;;;;;2.35;1.50;;;;;;;;;;5073875;28;20048;-81
2022/02/09 11:47:31;;;;;;;2.47;1.40;;;;;;;;;;5070690;28;20059;-81
2022/02/09 11:56:29;;;;;;;7.03;2.00;;;;;;;;;;5073194;28;20090;-82
2022/02/09 12:12:11;;;;;;;6.95;1.75;;;;;;;;;;5082347;28;20047;-80
2022/02/09 12:20:30;;;;;;;2.90;1.75;;;;;;;;;;5076397;28;20171;-78
2022/02/09 12:26:00;;;;;;;5.65;1.73;;;;;;;;;;5045524;28;20410;-80
2022/02/09 12:28:35;;;;;;;4.18;2.10;;;;;;;;;;5065855;28;20388;-82
2022/02/09 12:31:05;;;;;;;4.35;1.40;;;;;;;;;;5080254;28;20074;-81
2022/02/09 12:33:32;;;;;;;5.38;2.90;;;;;;;;;;5082060;28;20054;-81
2022/02/09 12:36:19;;;;;;;2.97;1.40;;;;;;;;;;5109636;28;20569;-80
2022/02/09 12:38:46;;;;;;;2.35;1.40;;;;;;;;;;5076082;28;20039;-80
2022/02/09 12:41:12;;;;;;;5.88;1.60;;;;;;;;;;5095365;28;20055;-80
2022/02/09 12:43:57;;;;;;;1.67;1.17;;;;;;;;;;5075690;28;20035;-79
2022/02/09 12:46:25;;;;;;;2.50;1.50;;;;;;;;;;5117884;27;20122;-79
2022/02/09 12:48:52;;;;;;;5.90;1.55;;;;;;;;;;5093077;28;20047;-81
2022/02/09 12:51:25;;;;;;;15.57;1.67;;;;;;;;;;5096486;28;20035;-81
2022/02/09 12:53:52;;;;;;;1.95;1.45;;;;;;;;;;5090455;28;20075;-82
2022/02/09 12:56:17;;;;;;;;;;;;;;;;;;5089894;28;20055;-82
2022/02/09 12:58:45;;;;;;;2.33;1.60;;;;;;;;;;5081193;28;19920;-83
2022/02/09 13:01:12;;;;;;;0.95;0.88;;;;;;;;;;5090704;28;20229;-83
2022/02/09 13:03:38;;;;;;;;;;;;;;;;;;5071133;28;20843;-84
2022/02/09 13:06:11;;;;;;;5.00;1.30;;;;;;;;;;5080867;28;19924;-83
2022/02/09 13:08:37;;;;;;;3.35;1.60;;;;;;;;;;5103462;28;20044;-80
2022/02/09 13:11:16;;;;;;;4.25;1.40;;;;;;;;;;5084913;28;20047;-83
2022/02/09 13:13:46;;;;;;;3.47;1.98;;;;;;;;;;5090487;28;20056;-80
2022/02/09 13:16:32;;;;;;;3.00;1.52;;;;;;;;;;5089496;28;20044;-81
2022/02/09 14:03:50;;;;;;;2.97;1.83;;;;;;;;;;5095460;28;20040;-78
2022/02/09 14:14:45;;;;;;;2.67;2.03;;;;;;;;;;5085988;28;20046;-82
2022/02/09 14:17:03;;;;;;;10.32;1.83;;;;;;;;;;5081954;28;20051;-80
2022/02/09 14:34:54;;;;;;;13.70;2.45;;;;;;;;;;5094408;28;20082;-79
2022/02/09 14:58:01;;;;;;;8.98;2.40;;;;;;;;;;5106316;28;20090;-78
2022/02/09 15:00:27;;;;;;;4.38;2.13;;;;;;;;;;5090721;28;20047;-77
2022/02/09 15:16:00;;;;;;;2.33;1.75;;;;;;;;;;5088564;28;20087;-78
2022/02/09 15:19:00;;;;;;;5.93;2.78;;;;;;;;;;5094656;28;20048;-78
2022/02/09 15:21:26;;;;;;;4.60;1.92;;;;;;;;;;5089657;28;20439;-78
2022/02/09 15:23:55;;;;;;;4.43;2.38;;;;;;;;;;5106492;27;20384;-77
2022/02/09 15:26:22;;;;;;;3.33;1.73;;;;;;;;;;5098069;28;20039;-80
2022/02/09 15:28:50;;;;;;;5.65;1.90;;;;;;;;;;5098644;28;20098;-79
2022/02/09 15:31:23;;;;;;;3.75;1.30;;;;;;;;;;5097632;28;20065;-77
2022/02/09 15:34:01;;;;;;;4.35;1.92;;;;;;;;;;5098474;28;20059;-77
2022/02/09 15:36:47;;;;;;;5.47;2.28;;;;;;;;;;5085897;28;20049;-79
2022/02/09 15:39:14;;;;;;;10.15;2.70;;;;;;;;;;5092118;28;20048;-81
2022/02/09 16:46:28;;;;;;;2.33;1.30;;;;;;;;;;5097315;28;20044;-81
2022/02/09 16:49:04;;;;;;;1.90;1.45;;;;;;;;;;5099213;28;20047;-81
2022/02/09 16:51:34;;;;;;;2.25;1.27;;;;;;;;;;5083786;28;20040;-81
2022/02/09 17:18:49;;;;;;;2.17;1.70;;;;;;;;;;5093208;28;20054;-78
2022/02/09 17:21:16;;;;;;;3.70;1.85;;;;;;;;;;5091341;28;20051;-78
2022/02/09 17:23:44;;;;;;;4.82;2.15;;;;;;;;;;5091939;28;20126;-79
2022/02/09 17:26:12;;;;;;;4.63;2.60;;;;;;;;;;5106286;27;20089;-80
2022/02/09 17:28:39;;;;;;;4.60;2.55;;;;;;;;;;5115090;27;20051;-79
2022/02/09 17:57:53;;;;;;;9.20;2.50;;;;;;;;;;5078470;28;20044;-80
2022/02/09 18:00:19;;;;;;;3.28;2.35;;;;;;;;;;5083579;28;20032;-78
2022/02/09 18:02:49;;;;;;;6.13;2.05;;;;;;;;;;5102903;28;20126;-79
2022/02/09 18:05:26;;;;;;;8.88;2.20;;;;;;;;;;5104512;28;20101;-80
2022/02/09 18:07:57;;;;;;;5.85;1.70;;;;;;;;;;5094063;28;20123;-79
2022/02/09 18:10:49;;;;;;;4.65;2.45;;;;;;;;;;5104491;28;20048;-79
2022/02/09 18:30:42;;;;;;;8.15;1.95;;;;;;;;;;5044541;28;20074;-84
2022/02/09 18:33:52;;;;;;;4.95;2.20;;;;;;;;;;5102024;28;20051;-82
2022/02/09 18:43:38;;;;;;;7.18;2.22;;;;;;;;;;5117869;27;20535;-83
2022/02/09 18:57:04;;;;;;;4.20;2.30;;;7.60;99.90;;;;;;5090553;27;20499;-81
2022/02/09 19:04:47;;;;;;;4.50;2.05;;;7.60;99.90;;;;;;5109148;27;20039;-81
2022/02/09 19:07:34;;;;;;;4.25;2.15;;;7.60;99.90;;;;;;5104763;27;20047;-80
2022/02/09 19:16:03;;;;;;;3.72;2.83;;;7.60;99.90;;;;;;5117229;27;20122;-84
2022/02/09 19:19:26;;;;;;;8.50;3.33;;;7.80;99.90;;;;;;5114667;27;20043;-82
2022/02/09 19:42:06;;;;;;;4.65;3.15;;;7.60;99.90;;;;;;5090593;27;20418;-82
2022/02/09 19:49:34;;;;;;;7.45;3.42;;;7.50;99.90;;;;;;5095696;28;20044;-82
2022/02/09 19:52:12;;;;;;;5.70;3.70;;;7.60;99.90;;;;;;5089272;28;20050;-83
2022/02/09 19:57:06;;;;;;;13.40;3.78;;;7.50;99.90;;;;;;5106686;28;20047;-84
2022/02/09 19:59:35;;;;;;;7.22;2.88;;;7.50;99.90;;;;;;5076149;28;95208;-83
2022/02/09 20:02:01;;;;;;;8.50;3.35;;;7.60;99.90;;;;;;5098884;28;20161;-81
2022/02/09 20:04:27;;;;;;;18.00;4.28;;;7.60;99.90;;;;;;5094119;28;20446;-82
2022/02/09 20:06:55;;;;;;;5.10;2.85;;;7.60;99.90;;;;;;5080360;28;20036;-84
2022/02/09 20:09:24;;;;;;;23.35;5.15;;;7.90;99.90;;;;;;5066470;28;20062;-81
2022/02/09 20:11:50;;;;;;;12.63;4.68;;;7.60;99.90;;;;;;5066447;28;20422;-82
2022/02/09 20:14:17;;;;;;;6.28;3.40;;;7.20;99.90;;;;;;5071152;28;20040;-83
2022/02/09 20:16:43;;;;;;;6.25;3.58;;;7.50;99.90;;;;;;5086097;28;20472;-84
2022/02/09 20:19:08;;;;;;;8.07;4.35;;;7.60;99.90;;;;;;5084042;28;20051;-82
2022/02/09 20:21:35;;;;;;;4.03;3.05;;;7.50;99.90;;;;;;5094529;28;20040;-84
2022/02/09 20:24:15;;;;;;;;;;;7.60;99.90;;;;;;5095544;28;20094;-82
2022/02/09 20:26:55;;;;;;;9.65;3.42;;;7.50;99.90;;;;;;5098891;28;19962;-83
2022/02/09 20:29:31;;;;;;;8.82;4.50;;;7.50;99.90;;;;;;5086199;28;20051;-84
2022/02/09 20:32:15;;;;;;;5.95;2.88;;;7.50;99.90;;;;;;5075707;28;20042;-82
2022/02/09 20:34:56;;;;;;;11.48;4.15;;;7.50;99.90;;;;;;5067012;28;20370;-82
2022/02/09 20:37:25;;;;;;;11.07;4.13;;;7.50;99.90;;;;;;5078516;28;20067;-85
2022/02/09 20:44:38;;;;;;;16.48;8.73;;;7.60;99.90;;;;;;5048413;28;20060;-86
2022/02/09 20:47:04;;;;;;;8.90;3.90;;;7.50;99.90;;;;;;4995671;28;20068;-81
2022/02/09 20:49:39;;;;;;;;;;;7.40;99.90;;;;;;4983564;28;66259;-83
2022/02/09 20:52:05;;;;;;;6.40;4.00;;;7.40;99.90;;;;;;5022950;28;19925;-82
2022/02/09 20:54:31;;;;;;;9.65;4.30;;;6.60;99.90;;;;;;5055361;28;20540;-81
2022/02/09 20:56:57;;;;;;;8.63;4.57;;;7.40;99.90;;;;;;5050028;28;20127;-82
2022/02/09 20:59:22;;;;;;;11.02;5.05;;;7.40;99.90;;;;;;5052406;28;20124;-83
2022/02/09 21:01:59;;;;;;;14.10;5.22;;;7.40;99.90;;;;;;5048611;28;20062;-83
2022/02/09 21:04:25;;;;;;;7.22;4.07;;;7.40;99.90;;;;;;5052520;28;20510;-82
2022/02/09 21:09:56;;;;;;;8.30;4.53;;;7.40;99.90;;;;;;5061762;28;20539;-81
2022/02/09 21:15:31;;;;;;;10.38;5.45;;;7.40;99.90;;;;;;5069410;28;20182;-84
2022/02/09 21:26:39;;;;;;;12.43;5.25;;;7.40;99.90;;;;;;5069693;28;20067;-84
2022/02/09 21:41:53;;;;;;;11.65;5.70;;;7.40;99.90;;;;;;5065072;28;20039;-82
2022/02/09 22:01:28;;;;;;;10.77;5.38;;;7.30;99.90;;;;;;5101670;27;20050;-84
2022/02/09 22:07:22;;;;;;;11.35;5.78;;;7.40;99.90;;;;;;5087475;28;20052;-83
2022/02/09 22:20:35;;;;;;;9.15;4.40;;;7.30;99.90;;;;;;5091577;28;20826;-84
2022/02/09 22:28:33;;;;;;;12.48;4.97;;;7.30;99.90;;;;;;5089455;28;20044;-84
2022/02/09 22:31:24;;;;;;;;;;;7.30;99.90;;;;;;5075006;28;20063;-83
2022/02/09 22:55:38;;;;;;;5.80;3.92;;;7.10;99.90;;;;;;5088007;28;20082;-83
2022/02/09 22:58:06;;;;;;;6.72;2.83;;;7.10;99.90;;;;;;5074390;28;20058;-84
2022/02/09 23:00:52;;;;;;;4.40;2.70;;;7.10;99.90;;;;;;5072168;28;20052;-84
2022/02/09 23:03:31;;;;;;;5.70;3.38;;;7.10;99.90;;;;;;5082359;28;20048;-83
2022/02/09 23:14:00;;;;;;;;;;;6.90;99.90;;;;;;5082346;28;20048;-83
